createdAt,value
2023-04-03T00:02:34.177Z,8.67
2023-04-03T00:05:36.645Z,8.50
2023-04-03T00:08:40.228Z,9.77
2023-04-03T00:11:42.183Z,10.67
2023-04-03T00:14:44.086Z,9.37
2023-04-03T00:17:46.945Z,8.73
2023-04-03T00:20:49.262Z,10.87
2023-04-03T00:23:51.791Z,9.43
2023-04-03T00:26:53.651Z,8.40
2023-04-03T00:29:55.715Z,10.00
2023-04-03T00:32:57.918Z,11.17
2023-04-03T00:36:00.198Z,13.77
2023-04-03T00:39:02.192Z,9.83
2023-04-03T00:42:04.207Z,11.40
2023-04-03T00:45:05.993Z,10.30
2023-04-03T00:48:10.134Z,10.63
2023-04-03T00:51:19.219Z,9.57
2023-04-03T00:54:21.979Z,9.77
2023-04-03T00:57:24.301Z,10.17
2023-04-03T01:00:26.698Z,8.50
2023-04-03T01:03:28.655Z,13.23
2023-04-03T01:06:35.870Z,8.43
2023-04-03T01:09:38.823Z,8.60
2023-04-03T01:12:46.705Z,7.63
2023-04-03T01:15:49.306Z,7.80
2023-04-03T01:18:52.098Z,7.80
2023-04-03T01:22:27.785Z,7.60
2023-04-03T01:25:30.001Z,7.93
2023-04-03T01:28:36.687Z,11.50
2023-04-03T01:31:49.314Z,7.57
2023-04-03T01:34:51.266Z,7.03
2023-04-03T01:37:53.382Z,7.70
2023-04-03T01:40:55.438Z,9.83
2023-04-03T01:43:57.358Z,8.03
2023-04-03T01:46:59.317Z,7.73
2023-04-03T01:50:01.430Z,7.77
2023-04-03T01:53:03.292Z,7.77
2023-04-03T01:56:06.049Z,8.13
2023-04-03T01:59:07.944Z,7.40
2023-04-03T02:02:10.103Z,7.00
2023-04-03T02:05:12.052Z,6.70
2023-04-03T02:08:14.495Z,8.70
2023-04-03T02:11:16.586Z,6.67
2023-04-03T02:14:18.640Z,8.63
2023-04-03T02:17:20.686Z,7.47
2023-04-03T02:20:23.390Z,5.60
2023-04-03T02:23:25.485Z,7.20
2023-04-03T02:26:28.216Z,6.27
2023-04-03T02:29:30.144Z,6.27
2023-04-03T02:32:32.620Z,7.00
2023-04-03T02:35:34.610Z,6.93
2023-04-03T02:38:37.188Z,8.33
2023-04-03T02:41:39.131Z,7.10
2023-04-03T02:44:41.668Z,7.80
2023-04-03T02:47:43.717Z,7.20
2023-04-03T02:50:45.727Z,8.17
2023-04-03T02:53:47.812Z,8.27
2023-04-03T02:56:50.883Z,5.93
2023-04-03T02:59:52.837Z,9.60
2023-04-03T03:02:54.846Z,7.27
2023-04-03T03:06:11.061Z,9.13
2023-04-03T03:09:14.353Z,7.07
2023-04-03T03:12:16.665Z,6.53
2023-04-03T03:15:20.809Z,7.70
2023-04-03T03:18:22.991Z,7.70
2023-04-03T03:21:25.072Z,10.90
2023-04-03T03:24:27.567Z,6.97
2023-04-03T03:27:30.086Z,6.40
2023-04-03T03:30:32.038Z,8.17
2023-04-03T03:33:34.385Z,7.30
2023-04-03T03:36:36.827Z,8.47
2023-04-03T03:39:38.781Z,8.60
2023-04-03T03:42:40.883Z,9.30
2023-04-03T03:45:43.448Z,8.30
2023-04-03T03:48:45.526Z,8.33
2023-04-03T03:51:48.134Z,9.10
2023-04-03T03:54:50.067Z,8.20
2023-04-03T03:57:52.379Z,9.03
2023-04-03T04:00:59.189Z,7.03
2023-04-03T04:04:01.957Z,7.50
2023-04-03T04:07:04.737Z,7.53
2023-04-03T04:10:07.231Z,8.77
2023-04-03T04:13:09.227Z,9.30
2023-04-03T04:16:11.186Z,7.00
2023-04-03T04:19:16.097Z,8.97
2023-04-03T04:22:18.008Z,8.93
2023-04-03T04:25:19.906Z,7.53
2023-04-03T04:28:22.237Z,7.80
2023-04-03T04:31:24.408Z,7.33
2023-04-03T04:34:26.558Z,9.67
2023-04-03T04:37:28.549Z,7.67
2023-04-03T04:40:30.864Z,7.90
2023-04-03T04:43:32.805Z,7.67
2023-04-03T04:46:34.901Z,7.33
2023-04-03T04:49:37.129Z,9.03
2023-04-03T04:52:39.512Z,10.53
2023-04-03T04:55:41.427Z,9.03
2023-04-03T04:58:44.112Z,10.53
2023-04-03T05:01:46.155Z,10.80
2023-04-03T05:04:48.510Z,9.97
2023-04-03T05:07:50.555Z,10.20
2023-04-03T05:10:54.929Z,10.73
2023-04-03T05:13:58.104Z,10.23
2023-04-03T05:17:00.078Z,11.37
2023-04-03T05:20:02.384Z,13.40
2023-04-03T05:23:04.524Z,9.90
2023-04-03T05:26:07.153Z,14.47
2023-04-03T05:29:09.663Z,10.87
2023-04-03T05:32:12.542Z,11.20
2023-04-03T05:35:14.877Z,9.13
2023-04-03T05:38:16.837Z,10.60
2023-04-03T05:41:19.418Z,9.57
2023-04-03T05:44:21.393Z,9.70
2023-04-03T05:47:23.637Z,11.03
2023-04-03T05:50:26.036Z,9.67
2023-04-03T05:53:33.371Z,9.27
2023-04-03T05:56:35.350Z,10.93
2023-04-03T05:59:37.338Z,10.00
2023-04-03T06:02:39.694Z,11.23
2023-04-03T06:05:43.847Z,9.67
2023-04-03T06:08:45.763Z,7.43
2023-04-03T06:11:47.801Z,10.20
2023-04-03T06:14:49.813Z,10.50
2023-04-03T06:17:51.849Z,9.43
2023-04-03T06:20:53.862Z,10.20
2023-04-03T06:23:56.261Z,11.27
2023-04-03T06:26:58.492Z,8.87
2023-04-03T06:30:00.576Z,7.73
2023-04-03T06:33:02.499Z,10.33
2023-04-03T06:36:06.483Z,8.93
2023-04-03T06:39:08.756Z,7.97
2023-04-03T06:42:11.554Z,8.33
2023-04-03T06:45:13.532Z,7.57
2023-04-03T06:48:15.908Z,8.73
2023-04-03T06:51:27.188Z,7.60
2023-04-03T06:54:29.212Z,6.70
2023-04-03T06:57:31.252Z,9.50
2023-04-03T07:00:33.364Z,8.50
2023-04-03T07:03:35.636Z,7.13
2023-04-03T07:06:38.110Z,7.13
2023-04-03T07:09:39.968Z,5.37
2023-04-03T07:12:43.482Z,6.33
2023-04-03T07:15:45.432Z,7.40
2023-04-03T07:18:48.140Z,5.17
2023-04-03T07:21:50.029Z,5.70
2023-04-03T07:24:51.978Z,5.80
2023-04-03T07:27:55.925Z,6.10
2023-04-03T07:31:07.598Z,5.90
2023-04-03T07:34:09.720Z,5.27
2023-04-03T07:37:12.150Z,4.73
2023-04-03T07:40:14.210Z,5.20
2023-04-03T07:43:17.888Z,4.60
2023-04-03T07:46:20.106Z,5.50
2023-04-03T07:49:24.990Z,5.97
2023-04-03T07:52:27.024Z,4.93
2023-04-03T07:55:29.637Z,6.50
2023-04-03T07:58:31.777Z,5.20
2023-04-03T08:01:35.169Z,5.73
2023-04-03T08:04:37.222Z,5.63
2023-04-03T08:07:40.885Z,5.37
2023-04-03T08:10:43.094Z,5.63
2023-04-03T08:13:45.031Z,4.80
2023-04-03T08:16:48.432Z,8.40
2023-04-03T08:19:50.789Z,7.97
2023-04-03T08:22:52.683Z,4.70
2023-04-03T08:25:54.634Z,6.87
2023-04-03T08:28:56.799Z,4.07
2023-04-03T08:31:59.125Z,5.40
2023-04-03T08:35:01.184Z,4.80
2023-04-03T08:38:03.568Z,4.67
2023-04-03T08:41:17.326Z,4.60
2023-04-03T08:44:46.211Z,4.23
2023-04-03T08:48:03.532Z,3.50
2023-04-03T08:51:14.166Z,6.20
2023-04-03T08:54:26.093Z,4.10
2023-04-03T08:57:41.109Z,4.07
2023-04-03T09:00:53.236Z,4.10
2023-04-03T09:03:55.363Z,5.10
2023-04-03T09:07:03.898Z,4.23
2023-04-03T09:10:07.036Z,3.70
2023-04-03T09:13:33.691Z,3.63
2023-04-03T09:16:44.735Z,4.17
2023-04-03T09:20:09.982Z,4.60
2023-04-03T09:23:50.200Z,4.37
2023-04-03T09:27:00.986Z,3.77
2023-04-03T09:30:04.118Z,5.00
2023-04-03T09:33:08.540Z,5.47
2023-04-03T09:36:10.645Z,4.20
2023-04-03T09:39:18.279Z,5.40
2023-04-03T09:42:25.280Z,4.17
2023-04-03T09:45:37.647Z,3.73
2023-04-03T09:48:41.048Z,3.70
2023-04-03T09:51:43.414Z,3.17
2023-04-03T09:54:45.492Z,2.97
2023-04-03T09:57:48.222Z,3.93
2023-04-03T10:00:57.549Z,4.20
2023-04-03T10:04:20.112Z,3.93
2023-04-03T10:07:35.446Z,6.20
2023-04-03T10:10:38.691Z,4.10
2023-04-03T10:17:45.762Z,4.90
2023-04-03T10:20:53.012Z,3.67
2023-04-03T10:24:16.267Z,6.57
2023-04-03T10:27:49.097Z,3.70
2023-04-03T10:31:15.124Z,3.27
2023-04-03T10:34:26.879Z,3.57
2023-04-03T10:37:44.376Z,2.83
2023-04-03T10:40:49.213Z,2.80
2023-04-03T10:44:09.577Z,2.47
2023-04-03T10:47:21.704Z,2.83
2023-04-03T10:50:28.852Z,2.47
2023-04-03T10:53:39.658Z,3.30
2023-04-03T10:56:46.748Z,4.23
2023-04-03T10:59:56.143Z,4.90
2023-04-03T11:03:02.110Z,3.27
2023-04-03T11:06:07.805Z,3.97
2023-04-03T11:09:21.790Z,3.63
2023-04-03T11:12:34.345Z,3.87
2023-04-03T11:15:36.591Z,6.53
2023-04-03T11:18:43.692Z,5.57
2023-04-03T11:21:50.507Z,4.97
2023-04-03T11:25:10.603Z,3.70
2023-04-03T11:28:15.729Z,6.07
2023-04-03T11:31:47.384Z,5.60
2023-04-03T11:34:51.975Z,5.00
2023-04-03T11:37:54.808Z,4.33
2023-04-03T11:40:57.933Z,5.73
2023-04-03T11:44:06.948Z,2.90
2023-04-03T11:47:11.696Z,5.20
2023-04-03T11:50:38.960Z,5.03
2023-04-03T11:53:44.819Z,4.70
2023-04-03T11:56:47.898Z,3.80
2023-04-03T11:59:49.808Z,4.80
2023-04-03T12:02:54.814Z,3.80
2023-04-03T12:06:05.978Z,4.73
2023-04-03T12:09:29.192Z,3.00
2023-04-03T12:12:37.551Z,3.67
2023-04-03T12:15:42.542Z,4.53
2023-04-03T12:18:52.464Z,3.40
2023-04-03T12:21:59.792Z,3.60
2023-04-03T12:25:40.078Z,3.73
2023-04-03T12:28:45.505Z,4.80
2023-04-03T12:32:11.741Z,2.63
2023-04-03T12:35:35.612Z,3.00
2023-04-03T12:38:52.104Z,5.53
2023-04-03T12:42:11.730Z,3.90
2023-04-03T12:45:21.617Z,2.87
2023-04-03T12:48:29.620Z,3.97
2023-04-03T12:51:48.085Z,2.50
2023-04-03T12:54:50.902Z,3.27
2023-04-03T12:57:53.611Z,4.23
2023-04-03T13:01:11.853Z,3.57
2023-04-03T13:04:15.378Z,4.43
2023-04-03T13:07:51.337Z,3.33
2023-04-03T13:11:01.766Z,3.67
2023-04-03T13:14:07.311Z,3.33
2023-04-03T13:17:15.557Z,2.97
2023-04-03T13:20:30.412Z,5.13
2023-04-03T13:23:34.097Z,3.60
2023-04-03T13:26:36.594Z,2.30
2023-04-03T13:29:40.241Z,2.13
2023-04-03T13:32:45.537Z,3.13
2023-04-03T13:35:48.499Z,2.33
2023-04-03T13:39:22.909Z,4.90
2023-04-03T13:42:28.186Z,5.70
2023-04-03T13:45:31.579Z,2.97
2023-04-03T13:48:59.816Z,3.20
2023-04-03T13:52:07.987Z,2.70
2023-04-03T13:55:26.293Z,2.53
2023-04-03T13:58:30.662Z,3.30
2023-04-03T14:01:43.091Z,3.27
2023-04-03T14:04:59.626Z,4.10
2023-04-03T14:08:03.251Z,3.57
2023-04-03T14:11:05.311Z,4.97
2023-04-03T14:14:14.554Z,2.23
2023-04-03T14:17:24.780Z,3.17
2023-04-03T14:20:28.053Z,3.43
2023-04-03T14:23:30.698Z,3.43
2023-04-03T14:26:32.593Z,3.63
2023-04-03T14:29:34.734Z,3.73
2023-04-03T14:32:36.998Z,2.87
2023-04-03T14:35:39.020Z,3.13
2023-04-03T14:38:41.503Z,10.23
2023-04-03T14:41:44.315Z,2.70
2023-04-03T14:44:46.661Z,4.17
2023-04-03T14:47:51.711Z,2.03
2023-04-03T14:51:04.569Z,2.03
2023-04-03T14:54:14.364Z,5.03
2023-04-03T14:57:17.569Z,5.93
2023-04-03T15:00:22.347Z,3.23
2023-04-03T15:03:24.822Z,2.50
2023-04-03T15:06:27.508Z,4.20
2023-04-03T15:09:30.327Z,4.50
2023-04-03T15:12:32.279Z,5.60
2023-04-03T15:15:35.675Z,2.57
2023-04-03T15:18:39.693Z,3.60
2023-04-03T15:21:41.848Z,3.00
2023-04-03T15:24:44.764Z,2.40
2023-04-03T15:27:46.653Z,4.60
2023-04-03T15:30:48.699Z,3.30
2023-04-03T15:33:50.675Z,4.47
2023-04-03T15:36:55.746Z,2.90
2023-04-03T15:39:58.216Z,2.73
2023-04-03T15:43:00.173Z,3.47
2023-04-03T15:46:02.740Z,3.63
2023-04-03T15:49:04.882Z,4.73
2023-04-03T15:52:06.952Z,4.00
2023-04-03T15:55:09.688Z,4.87
2023-04-03T15:58:12.320Z,2.67
2023-04-03T16:01:14.683Z,3.30
2023-04-03T16:04:18.060Z,2.87
2023-04-03T16:07:22.025Z,1.90
2023-04-03T16:10:24.123Z,4.83
2023-04-03T16:13:26.308Z,3.23
2023-04-03T16:16:28.595Z,7.23
2023-04-03T16:19:31.405Z,4.00
2023-04-03T16:22:34.052Z,3.03
2023-04-03T16:25:36.483Z,3.37
2023-04-03T16:28:38.481Z,3.07
2023-04-03T16:31:41.289Z,6.47
2023-04-03T16:34:43.240Z,4.23
2023-04-03T16:37:45.908Z,3.33
2023-04-03T16:40:47.862Z,2.93
2023-04-03T16:43:51.187Z,3.50
2023-04-03T16:46:54.113Z,2.63
2023-04-03T16:49:56.433Z,2.53
2023-04-03T16:52:58.495Z,4.90
2023-04-03T16:56:00.731Z,4.53
2023-04-03T16:59:02.750Z,2.57
2023-04-03T17:02:04.840Z,6.70
2023-04-03T17:05:07.455Z,2.70
2023-04-03T17:08:10.058Z,3.83
2023-04-03T17:11:12.114Z,3.93
2023-04-03T17:14:14.421Z,2.47
2023-04-03T17:17:21.103Z,4.03
2023-04-03T17:20:23.660Z,4.10
2023-04-03T17:23:27.493Z,3.07
2023-04-03T17:26:29.625Z,3.43
2023-04-03T17:29:38.587Z,3.87
2023-04-03T17:32:41.236Z,4.83
2023-04-03T17:35:43.887Z,5.27
2023-04-03T17:38:49.060Z,3.27
2023-04-03T17:41:51.113Z,4.37
2023-04-03T17:44:53.069Z,4.13
2023-04-03T17:47:57.472Z,5.13
2023-04-03T17:51:00.542Z,4.63
2023-04-03T17:54:03.559Z,3.30
2023-04-03T17:57:06.155Z,3.77
2023-04-03T18:00:09.623Z,4.90
2023-04-03T18:03:11.674Z,2.97
2023-04-03T18:06:16.846Z,4.07
2023-04-03T18:09:22.386Z,3.80
2023-04-03T18:12:24.621Z,3.93
2023-04-03T18:15:27.129Z,5.63
2023-04-03T18:18:29.112Z,2.93
2023-04-03T18:21:31.190Z,4.17
2023-04-03T18:24:34.346Z,3.27
2023-04-03T18:27:36.405Z,3.80
2023-04-03T18:30:39.030Z,3.47
2023-04-03T18:33:41.204Z,3.03
2023-04-03T18:36:43.076Z,4.77
2023-04-03T18:39:45.644Z,3.07
2023-04-03T18:42:47.612Z,4.90
2023-04-03T18:45:50.415Z,3.37
2023-04-03T18:48:54.491Z,2.57
2023-04-03T18:51:56.612Z,4.20
2023-04-03T18:54:58.821Z,4.27
2023-04-03T18:58:01.531Z,2.60
2023-04-03T19:01:04.187Z,4.50
2023-04-03T19:04:07.301Z,5.07
2023-04-03T19:07:10.573Z,4.07
2023-04-03T19:10:20.297Z,3.87
2023-04-03T19:13:22.284Z,3.20
2023-04-03T19:16:25.661Z,3.67
2023-04-03T19:19:27.608Z,4.17
2023-04-03T19:22:30.897Z,4.00
2023-04-03T19:25:32.835Z,3.83
2023-04-03T19:28:36.352Z,5.10
2023-04-03T19:31:40.515Z,5.07
2023-04-03T19:34:44.839Z,5.17
2023-04-03T19:37:51.175Z,5.87
2023-04-03T19:40:53.479Z,3.30
2023-04-03T19:43:57.886Z,3.70
2023-04-03T19:47:01.304Z,4.57
2023-04-03T19:50:06.264Z,5.47
2023-04-03T19:53:11.513Z,4.23
2023-04-03T19:56:16.615Z,3.47
2023-04-03T19:59:19.247Z,5.23
2023-04-03T20:02:21.872Z,4.27
2023-04-03T20:05:25.525Z,3.37
2023-04-03T20:08:29.197Z,3.70
2023-04-03T20:11:31.363Z,6.17
2023-04-03T20:14:33.982Z,3.23
2023-04-03T20:17:36.639Z,3.70
2023-04-03T20:20:42.572Z,3.97
2023-04-03T20:23:52.039Z,5.27
2023-04-03T20:26:57.177Z,8.43
2023-04-03T20:30:01.680Z,17.43
2023-04-03T20:33:05.270Z,7.47
2023-04-03T20:36:09.548Z,5.00
2023-04-03T20:39:11.984Z,7.73
2023-04-03T20:42:15.652Z,4.80
2023-04-03T20:45:21.906Z,6.10
2023-04-03T20:48:24.020Z,5.77
2023-04-03T20:51:27.727Z,6.27
2023-04-03T20:54:30.825Z,16.53
2023-04-03T20:57:34.616Z,10.60
2023-04-03T21:00:38.326Z,4.70
2023-04-03T21:03:40.647Z,5.70
2023-04-03T21:07:20.425Z,3.77
2023-04-03T21:11:00.337Z,4.90
2023-04-03T21:14:40.198Z,13.20
2023-04-03T21:18:00.711Z,6.47
2023-04-03T21:21:03.676Z,4.20
2023-04-03T21:24:10.074Z,4.07
2023-04-03T21:27:12.257Z,5.67
2023-04-03T21:30:16.223Z,6.40
2023-04-03T21:33:18.378Z,3.90
2023-04-03T21:36:20.359Z,5.23
2023-04-03T21:39:23.473Z,3.17
2023-04-03T21:42:26.267Z,4.77
2023-04-03T21:45:28.571Z,3.73
2023-04-03T21:48:31.102Z,4.80
2023-04-03T21:51:33.631Z,4.57
2023-04-03T21:54:36.246Z,4.47
2023-04-03T21:57:39.556Z,5.70
2023-04-03T22:00:42.430Z,7.83
2023-04-03T22:03:45.761Z,4.80
2023-04-03T22:06:48.291Z,5.47
2023-04-03T22:09:50.261Z,7.53
2023-04-03T22:12:52.156Z,6.83
2023-04-03T22:15:54.171Z,6.73
2023-04-03T22:18:59.641Z,6.07
2023-04-03T22:22:04.171Z,6.80
2023-04-03T22:25:06.482Z,4.70
2023-04-03T22:28:08.547Z,9.30
2023-04-03T22:31:14.449Z,7.63
2023-04-03T22:34:17.590Z,8.80
2023-04-03T22:37:19.536Z,11.07
2023-04-03T22:40:21.533Z,8.60
2023-04-03T22:43:23.628Z,5.00
2023-04-03T22:46:26.693Z,7.13
2023-04-03T22:49:29.372Z,4.33
2023-04-03T22:52:31.738Z,4.40
2023-04-03T22:55:33.649Z,4.07
2023-04-03T22:58:36.502Z,5.10
2023-04-03T23:01:39.519Z,4.17
2023-04-03T23:04:42.052Z,3.30
2023-04-03T23:07:43.973Z,4.90
2023-04-03T23:10:46.369Z,5.03
2023-04-03T23:13:48.248Z,4.63
2023-04-03T23:16:50.286Z,3.40
2023-04-03T23:19:52.654Z,6.07
2023-04-03T23:22:54.649Z,3.73
2023-04-03T23:26:01.677Z,4.57
2023-04-03T23:29:03.764Z,3.37
2023-04-03T23:32:06.291Z,3.23
2023-04-03T23:35:08.771Z,6.07
2023-04-03T23:38:11.267Z,4.87
2023-04-03T23:41:13.325Z,4.80
2023-04-03T23:44:15.302Z,5.67
2023-04-03T23:47:17.486Z,5.60
2023-04-03T23:50:19.376Z,4.53
2023-04-03T23:53:21.500Z,5.27
2023-04-03T23:56:23.430Z,6.33
2023-04-03T23:59:27.030Z,7.00
